createdAt,value
2022-10-19T00:02:55.670Z,17.70
2022-10-19T00:08:01.749Z,20.00
2022-10-19T00:13:04.478Z,11.60
2022-10-19T00:18:09.507Z,14.40
2022-10-19T00:23:12.306Z,12.90
2022-10-19T00:28:15.617Z,7.30
2022-10-19T00:33:22.095Z,9.40
2022-10-19T00:38:25.824Z,13.60
2022-10-19T00:43:31.678Z,11.20
2022-10-19T00:48:34.514Z,11.60
2022-10-19T00:53:37.563Z,11.40
2022-10-19T00:58:43.229Z,11.40
2022-10-19T01:03:46.870Z,9.90
2022-10-19T01:08:49.704Z,11.40
2022-10-19T01:14:06.535Z,6.90
2022-10-19T01:19:35.360Z,14.80
2022-10-19T01:24:59.655Z,8.10
2022-10-19T01:30:05.019Z,9.10
2022-10-19T01:35:14.577Z,10.30
2022-10-19T01:40:20.243Z,6.50
2022-10-19T01:45:50.183Z,6.20
2022-10-19T01:51:02.097Z,9.30
2022-10-19T01:56:05.528Z,8.30
2022-10-19T02:06:20.845Z,12.00
2022-10-19T02:11:24.751Z,10.10
2022-10-19T02:16:36.688Z,8.80
2022-10-19T02:21:40.397Z,10.50
2022-10-19T02:26:43.618Z,9.50
2022-10-19T02:31:46.634Z,6.70
2022-10-19T02:36:49.968Z,7.40
2022-10-19T02:42:10.153Z,9.50
2022-10-19T02:47:25.247Z,6.60
2022-10-19T02:52:28.045Z,7.40
2022-10-19T02:57:32.795Z,10.50
2022-10-19T03:02:36.109Z,8.00
2022-10-19T03:07:38.908Z,5.50
2022-10-19T03:12:41.711Z,9.20
2022-10-19T03:17:45.087Z,9.00
2022-10-19T03:22:47.971Z,11.30
2022-10-19T03:27:50.832Z,5.50
2022-10-19T03:32:53.636Z,7.20
2022-10-19T03:37:56.958Z,8.10
2022-10-19T03:42:59.752Z,6.00
2022-10-19T03:48:02.655Z,4.70
2022-10-19T03:53:05.562Z,5.90
2022-10-19T03:58:08.564Z,4.80
2022-10-19T04:03:11.469Z,8.00
2022-10-19T04:08:14.274Z,5.50
2022-10-19T04:13:17.075Z,7.90
2022-10-19T04:18:19.876Z,6.00
2022-10-19T04:23:22.682Z,9.80
2022-10-19T04:28:25.642Z,5.90
2022-10-19T04:33:28.695Z,7.30
2022-10-19T04:38:32.519Z,6.60
2022-10-19T04:43:36.238Z,8.80
2022-10-19T04:48:40.680Z,6.60
2022-10-19T04:53:44.323Z,5.50
2022-10-19T04:58:47.885Z,4.40
2022-10-19T05:03:54.841Z,6.00
2022-10-19T05:08:57.733Z,12.20
2022-10-19T05:14:00.529Z,4.60
2022-10-19T05:19:03.840Z,5.40
2022-10-19T05:24:06.747Z,6.50
2022-10-19T05:29:13.851Z,6.40
2022-10-19T05:34:16.651Z,3.20
2022-10-19T05:39:19.555Z,5.00
2022-10-19T05:44:24.027Z,4.80
2022-10-19T05:49:26.896Z,3.30
2022-10-19T05:54:29.656Z,3.90
2022-10-19T05:59:32.705Z,2.10
2022-10-19T06:04:35.814Z,3.00
2022-10-19T06:09:38.718Z,4.20
2022-10-19T06:14:42.753Z,3.20
2022-10-19T06:19:45.763Z,5.00
2022-10-19T06:24:48.660Z,4.80
2022-10-19T06:29:51.445Z,4.60
2022-10-19T06:34:56.384Z,2.10
2022-10-19T06:40:02.370Z,2.60
2022-10-19T06:45:09.913Z,1.80
2022-10-19T06:50:13.019Z,2.90
2022-10-19T06:55:17.450Z,4.60
2022-10-19T07:00:20.355Z,3.00
2022-10-19T07:05:23.709Z,2.90
2022-10-19T07:10:26.541Z,3.00
2022-10-19T07:15:29.441Z,4.40
2022-10-19T07:20:32.574Z,4.60
2022-10-19T07:25:36.513Z,2.70
2022-10-19T07:30:39.420Z,2.80
2022-10-19T07:35:42.643Z,2.60
2022-10-19T07:40:47.445Z,3.80
2022-10-19T07:45:50.601Z,3.20
2022-10-19T07:50:53.572Z,4.10
2022-10-19T07:55:57.360Z,2.60
2022-10-19T08:01:06.257Z,3.40
2022-10-19T08:06:11.934Z,2.30
2022-10-19T08:11:19.345Z,3.60
2022-10-19T08:16:27.270Z,2.00
2022-10-19T08:21:31.243Z,3.10
2022-10-19T08:26:37.887Z,1.20
2022-10-19T08:31:42.606Z,1.90
2022-10-19T08:36:45.549Z,1.90
2022-10-19T08:42:13.941Z,1.60
2022-10-19T08:47:35.147Z,1.40
2022-10-19T08:52:39.524Z,5.80
2022-10-19T08:58:11.038Z,6.10
2022-10-19T09:03:31.975Z,6.90
2022-10-19T09:08:46.995Z,5.10
2022-10-19T09:14:04.686Z,6.50
2022-10-19T09:19:29.575Z,5.30
2022-10-19T09:24:43.139Z,4.20
2022-10-19T09:29:55.233Z,3.00
2022-10-19T09:35:02.667Z,2.10
2022-10-19T09:40:07.251Z,1.00
2022-10-19T09:45:20.145Z,1.10
2022-10-19T09:50:27.654Z,2.80
2022-10-19T09:55:44.128Z,14.30
2022-10-19T10:00:54.543Z,3.30
2022-10-19T10:06:03.708Z,3.50
2022-10-19T10:11:15.624Z,2.60
2022-10-19T10:16:22.215Z,2.60
2022-10-19T10:21:33.730Z,2.90
2022-10-19T10:26:45.821Z,4.00
2022-10-19T10:32:13.838Z,2.10
2022-10-19T10:37:22.167Z,3.00
2022-10-19T10:42:33.389Z,2.30
2022-10-19T10:47:40.000Z,1.10
2022-10-19T10:53:03.853Z,4.50
2022-10-19T10:58:19.671Z,2.90
2022-10-19T11:03:29.018Z,2.20
2022-10-19T11:08:50.017Z,2.50
2022-10-19T11:13:59.271Z,1.80
2022-10-19T11:19:25.308Z,2.90
2022-10-19T11:24:35.373Z,2.60
2022-10-19T11:30:18.462Z,3.60
2022-10-19T11:35:30.069Z,2.80
2022-10-19T11:40:54.163Z,3.50
2022-10-19T11:46:10.899Z,1.80
2022-10-19T11:51:24.557Z,8.80
2022-10-19T11:56:58.199Z,4.80
2022-10-19T12:02:28.998Z,5.60
2022-10-19T12:07:50.278Z,4.50
2022-10-19T12:12:59.080Z,1.50
2022-10-19T12:18:15.751Z,3.70
2022-10-19T12:23:24.896Z,2.70
2022-10-19T12:28:32.416Z,4.10
2022-10-19T12:33:53.745Z,2.00
2022-10-19T12:39:01.669Z,3.50
2022-10-19T12:44:29.560Z,2.40
2022-10-19T12:49:51.924Z,2.70
2022-10-19T12:54:54.828Z,3.00
2022-10-19T13:00:01.150Z,1.30
2022-10-19T13:05:05.960Z,2.30
2022-10-19T13:10:21.046Z,3.30
2022-10-19T13:15:36.236Z,3.40
2022-10-19T13:25:46.861Z,3.60
2022-10-19T13:30:49.664Z,2.60
2022-10-19T13:35:58.617Z,5.10
2022-10-19T13:41:23.017Z,2.60
2022-10-19T13:46:28.686Z,1.50
2022-10-19T13:51:49.923Z,2.00
2022-10-19T13:57:23.339Z,2.20
2022-10-19T14:02:38.430Z,2.90
2022-10-19T14:07:50.447Z,2.10
2022-10-19T14:12:53.823Z,2.40
2022-10-19T14:18:00.252Z,2.10
2022-10-19T14:23:19.271Z,1.50
2022-10-19T14:28:23.935Z,2.10
2022-10-19T14:33:33.067Z,1.60
2022-10-19T14:38:38.695Z,3.00
2022-10-19T14:43:41.454Z,5.00
2022-10-19T14:48:47.512Z,2.70
2022-10-19T14:54:03.933Z,2.60
2022-10-19T14:59:27.500Z,4.20
2022-10-19T15:04:34.587Z,3.80
2022-10-19T15:09:48.262Z,2.50
2022-10-19T15:14:52.171Z,3.30
2022-10-19T15:19:58.562Z,5.10
2022-10-19T15:25:07.096Z,5.20
2022-10-19T15:30:18.906Z,5.20
2022-10-19T15:35:27.091Z,5.10
2022-10-19T15:40:35.674Z,9.10
2022-10-19T15:45:39.501Z,8.10
2022-10-19T15:50:48.626Z,6.40
2022-10-19T15:55:51.479Z,4.70
2022-10-19T16:00:54.355Z,6.20
2022-10-19T16:05:57.158Z,6.90
2022-10-19T16:11:00.369Z,6.50
2022-10-19T16:16:11.256Z,5.80
2022-10-19T16:21:16.162Z,5.70
2022-10-19T16:26:19.218Z,7.30
2022-10-19T16:31:23.353Z,5.80
2022-10-19T16:36:26.870Z,4.40
2022-10-19T16:41:29.718Z,3.20
2022-10-19T16:46:32.577Z,4.50
2022-10-19T16:51:41.933Z,6.40
2022-10-19T16:56:47.051Z,5.70
2022-10-19T17:01:50.170Z,7.90
2022-10-19T17:06:53.009Z,6.50
2022-10-19T17:11:56.006Z,4.40
2022-10-19T17:16:58.909Z,4.90
2022-10-19T17:22:03.145Z,6.30
2022-10-19T17:27:06.755Z,10.90
2022-10-19T17:32:09.675Z,9.60
2022-10-19T17:37:13.086Z,7.10
2022-10-19T17:42:15.895Z,4.40
2022-10-19T17:47:18.691Z,4.00
2022-10-19T17:52:21.470Z,4.60
2022-10-19T17:57:24.200Z,2.90
2022-10-19T18:02:27.127Z,4.80
2022-10-19T18:07:29.999Z,3.30
2022-10-19T18:12:32.803Z,4.40
2022-10-19T18:17:35.982Z,4.40
2022-10-19T18:22:39.814Z,2.20
2022-10-19T18:27:42.745Z,3.80
2022-10-19T18:32:49.756Z,3.20
2022-10-19T18:37:52.650Z,4.00
2022-10-19T18:42:55.759Z,3.70
2022-10-19T18:47:58.867Z,5.20
2022-10-19T18:53:01.668Z,5.20
2022-10-19T18:58:04.443Z,4.30
2022-10-19T19:03:07.347Z,5.60
2022-10-19T19:08:10.279Z,4.00
2022-10-19T19:13:13.079Z,3.30
2022-10-19T19:23:23.819Z,3.20
2022-10-19T19:28:26.707Z,3.00
2022-10-19T19:33:29.509Z,2.50
2022-10-19T19:38:32.623Z,2.60
2022-10-19T19:43:37.470Z,2.30
2022-10-19T19:48:42.628Z,3.30
2022-10-19T19:53:47.782Z,3.50
2022-10-19T19:58:58.574Z,2.30
2022-10-19T20:09:10.981Z,1.60
2022-10-19T20:14:13.942Z,3.80
2022-10-19T20:19:16.740Z,1.20
2022-10-19T20:24:19.544Z,3.50
2022-10-19T20:29:22.551Z,3.40
2022-10-19T20:34:25.352Z,2.90
2022-10-19T20:39:28.272Z,3.00
2022-10-19T20:44:31.163Z,3.30
2022-10-19T20:49:34.065Z,4.10
2022-10-19T20:54:37.479Z,1.50
2022-10-19T20:59:40.285Z,2.80
2022-10-19T21:04:43.149Z,2.40
2022-10-19T21:09:45.988Z,2.30
2022-10-19T21:14:49.199Z,3.10
2022-10-19T21:19:52.411Z,3.10
2022-10-19T21:24:55.132Z,2.90
2022-10-19T21:29:58.206Z,3.80
2022-10-19T21:35:01.707Z,5.00
2022-10-19T21:40:04.937Z,3.30
2022-10-19T21:45:29.121Z,4.40
2022-10-19T21:50:31.854Z,5.30
2022-10-19T21:55:35.780Z,3.90
2022-10-19T22:00:38.707Z,5.40
2022-10-19T22:05:50.061Z,4.70
2022-10-19T22:10:53.197Z,6.10
2022-10-19T22:15:55.907Z,4.50
2022-10-19T22:21:13.036Z,7.00
2022-10-19T22:26:17.579Z,4.10
2022-10-19T22:31:20.585Z,5.70
2022-10-19T22:36:23.487Z,5.80
2022-10-19T22:41:26.391Z,4.70
2022-10-19T22:46:29.750Z,9.40
2022-10-19T22:51:32.506Z,4.80
2022-10-19T22:56:35.514Z,9.40
2022-10-19T23:01:38.372Z,6.70
2022-10-19T23:06:41.322Z,4.80
2022-10-19T23:11:44.231Z,5.00
2022-10-19T23:16:47.032Z,4.60
2022-10-19T23:21:49.933Z,4.30
2022-10-19T23:26:53.963Z,4.80
2022-10-19T23:31:56.767Z,4.30
2022-10-19T23:36:59.565Z,4.30
2022-10-19T23:42:02.371Z,3.50
2022-10-19T23:47:05.579Z,4.10
2022-10-19T23:52:08.483Z,4.10
2022-10-19T23:57:11.291Z,4.50
